createdAt,value
2018-05-14T00:00:14.461Z,0.00
2018-05-14T00:01:14.340Z,0.00
2018-05-14T00:02:14.249Z,0.00
2018-05-14T00:03:14.158Z,0.00
2018-05-14T00:04:14.068Z,0.00
2018-05-14T00:05:14.008Z,0.00
2018-05-14T00:06:13.891Z,0.00
2018-05-14T00:07:13.799Z,0.00
2018-05-14T00:08:13.712Z,0.00
2018-05-14T00:09:14.160Z,0.00
2018-05-14T00:10:13.561Z,0.00
2018-05-14T00:11:13.444Z,0.00
2018-05-14T00:12:13.353Z,0.00
2018-05-14T00:13:13.266Z,0.00
2018-05-14T00:14:13.174Z,0.00
2018-05-14T00:15:13.118Z,0.00
2018-05-14T00:16:12.997Z,0.00
2018-05-14T00:17:12.908Z,0.00
2018-05-14T00:18:12.818Z,0.00
2018-05-14T00:19:12.730Z,0.00
2018-05-14T00:20:12.674Z,0.00
2018-05-14T00:21:12.550Z,0.00
2018-05-14T00:22:12.459Z,0.00
2018-05-14T00:23:13.110Z,0.00
2018-05-14T00:24:12.285Z,0.00
2018-05-14T00:25:12.221Z,0.00
2018-05-14T00:26:12.101Z,0.00
2018-05-14T00:27:12.016Z,0.00
2018-05-14T00:28:11.923Z,0.00
2018-05-14T00:29:11.837Z,0.00
2018-05-14T00:30:11.777Z,0.00
2018-05-14T00:31:11.653Z,0.00
2018-05-14T00:32:11.565Z,0.00
2018-05-14T00:33:11.784Z,0.00
2018-05-14T00:34:12.113Z,0.00
2018-05-14T00:35:11.328Z,0.00
2018-05-14T00:36:12.171Z,0.00
2018-05-14T00:37:11.120Z,0.00
2018-05-14T00:38:11.030Z,0.00
2018-05-14T00:39:10.940Z,0.00
2018-05-14T00:40:10.881Z,0.00
2018-05-14T00:41:10.762Z,0.00
2018-05-14T00:42:10.671Z,0.00
2018-05-14T00:43:10.582Z,0.00
2018-05-14T00:44:10.496Z,0.00
2018-05-14T00:45:10.407Z,0.00
2018-05-14T00:46:10.345Z,0.00
2018-05-14T00:47:10.226Z,0.00
2018-05-14T00:48:10.134Z,0.00
2018-05-14T00:49:10.045Z,0.00
2018-05-14T00:50:09.955Z,0.00
2018-05-14T00:51:09.899Z,0.00
2018-05-14T00:52:09.796Z,0.00
2018-05-14T00:53:09.686Z,0.00
2018-05-14T00:54:09.898Z,0.00
2018-05-14T00:55:09.515Z,0.00
2018-05-14T00:56:09.449Z,0.00
2018-05-14T00:57:10.166Z,0.00
2018-05-14T00:58:09.237Z,0.00
2018-05-14T00:59:09.148Z,0.00
2018-05-14T01:00:09.060Z,0.00
2018-05-14T01:01:09.004Z,0.00
2018-05-14T01:02:08.881Z,0.00
2018-05-14T01:03:08.791Z,0.00
2018-05-14T01:04:08.702Z,0.00
2018-05-14T01:05:08.614Z,0.00
2018-05-14T01:06:08.553Z,0.00
2018-05-14T01:07:08.434Z,0.00
2018-05-14T01:08:08.343Z,0.00
2018-05-14T01:09:08.254Z,0.00
2018-05-14T01:10:08.165Z,0.00
2018-05-14T01:11:08.623Z,0.00
2018-05-14T01:12:07.994Z,0.00
2018-05-14T01:13:07.896Z,0.00
2018-05-14T01:14:07.823Z,0.00
2018-05-14T01:15:07.717Z,0.00
2018-05-14T01:16:07.658Z,0.00
2018-05-14T01:17:07.541Z,0.00
2018-05-14T01:18:07.449Z,0.00
2018-05-14T01:19:07.360Z,0.00
2018-05-14T01:20:07.269Z,0.00
2018-05-14T01:21:07.182Z,0.00
2018-05-14T01:22:07.122Z,0.00
2018-05-14T01:23:07.000Z,0.00
2018-05-14T01:24:06.916Z,0.00
2018-05-14T01:25:06.819Z,0.00
2018-05-14T01:26:06.740Z,0.00
2018-05-14T01:27:06.670Z,0.00
2018-05-14T01:28:06.619Z,0.00
2018-05-14T01:29:06.751Z,0.00
2018-05-14T01:30:06.372Z,0.00
2018-05-14T01:31:06.288Z,0.00
2018-05-14T01:32:06.223Z,0.00
2018-05-14T01:33:06.106Z,0.00
2018-05-14T01:34:06.017Z,0.00
2018-05-14T01:35:05.925Z,0.00
2018-05-14T01:36:05.932Z,0.00
2018-05-14T01:37:05.774Z,0.00
2018-05-14T01:38:05.656Z,0.00
2018-05-14T01:39:05.565Z,0.00
2018-05-14T01:40:05.480Z,0.00
2018-05-14T01:41:05.385Z,0.00
2018-05-14T01:42:06.187Z,0.00
2018-05-14T01:43:05.500Z,0.00
2018-05-14T01:44:05.118Z,0.00
2018-05-14T01:45:05.027Z,0.00
2018-05-14T01:46:04.935Z,0.00
2018-05-14T01:47:04.878Z,0.00
2018-05-14T01:48:04.759Z,0.00
2018-05-14T01:49:04.667Z,0.00
2018-05-14T01:50:04.670Z,0.00
2018-05-14T01:51:04.489Z,0.00
2018-05-14T01:52:04.430Z,0.00
2018-05-14T01:53:04.319Z,0.00
2018-05-14T01:54:04.219Z,0.00
2018-05-14T01:55:04.129Z,0.00
2018-05-14T01:56:04.054Z,0.00
2018-05-14T01:57:04.078Z,0.00
2018-05-14T01:58:03.856Z,0.00
2018-05-14T01:59:03.769Z,0.00
2018-05-14T02:00:03.684Z,0.00
2018-05-14T02:01:03.591Z,0.00
2018-05-14T02:02:03.528Z,0.00
2018-05-14T02:03:03.508Z,0.00
2018-05-14T02:04:03.319Z,0.00
2018-05-14T02:05:04.136Z,0.00
2018-05-14T02:06:03.139Z,0.00
2018-05-14T02:07:03.080Z,0.00
2018-05-14T02:08:02.959Z,0.00
2018-05-14T02:09:02.871Z,0.00
2018-05-14T02:10:02.783Z,0.00
2018-05-14T02:11:03.673Z,0.00
2018-05-14T02:12:02.601Z,0.00
2018-05-14T02:13:02.551Z,0.00
2018-05-14T02:14:02.420Z,0.00
2018-05-14T02:15:03.192Z,0.00
2018-05-14T02:16:02.242Z,0.00
2018-05-14T02:17:02.157Z,0.00
2018-05-14T02:18:02.093Z,0.00
2018-05-14T02:19:01.971Z,0.00
2018-05-14T02:20:01.882Z,0.00
2018-05-14T02:21:01.791Z,0.00
2018-05-14T02:22:01.701Z,0.00
2018-05-14T02:23:01.642Z,0.00
2018-05-14T02:24:01.524Z,0.00
2018-05-14T02:25:01.434Z,0.00
2018-05-14T02:26:01.357Z,0.00
2018-05-14T02:27:01.253Z,0.00
2018-05-14T02:28:01.195Z,0.00
2018-05-14T02:29:01.072Z,0.00
2018-05-14T02:30:00.981Z,0.00
2018-05-14T02:31:00.893Z,0.00
2018-05-14T02:32:00.801Z,0.00
2018-05-14T02:33:00.745Z,0.00
2018-05-14T02:34:00.621Z,0.00
2018-05-14T02:35:00.534Z,0.00
2018-05-14T02:36:00.443Z,0.00
2018-05-14T02:37:00.351Z,0.00
2018-05-14T02:38:00.293Z,0.00
2018-05-14T02:39:00.171Z,0.00
2018-05-14T02:40:00.097Z,0.00
2018-05-14T02:40:59.992Z,0.00
2018-05-14T02:41:59.900Z,0.00
2018-05-14T02:42:59.858Z,0.00
2018-05-14T02:43:59.724Z,0.00
2018-05-14T02:44:59.633Z,0.00
2018-05-14T02:45:59.542Z,0.00
2018-05-14T02:46:59.453Z,0.00
2018-05-14T02:47:59.362Z,0.00
2018-05-14T02:48:59.301Z,0.00
2018-05-14T02:49:59.192Z,0.00
2018-05-14T02:50:59.091Z,0.00
2018-05-14T02:51:59.002Z,0.00
2018-05-14T02:52:58.914Z,0.00
2018-05-14T02:53:58.851Z,0.00
2018-05-14T02:54:58.734Z,0.00
2018-05-14T02:55:58.642Z,0.00
2018-05-14T02:56:58.552Z,0.00
2018-05-14T02:57:58.462Z,0.00
2018-05-14T02:58:58.407Z,0.00
2018-05-14T02:59:58.281Z,0.00
2018-05-14T03:00:58.193Z,0.00
2018-05-14T03:01:58.101Z,0.00
2018-05-14T03:02:58.658Z,0.00
2018-05-14T03:03:58.006Z,0.00
2018-05-14T03:04:57.852Z,0.00
2018-05-14T03:05:57.739Z,0.00
2018-05-14T03:06:57.653Z,0.00
2018-05-14T03:07:57.578Z,0.00
2018-05-14T03:08:57.504Z,0.00
2018-05-14T03:09:57.381Z,0.00
2018-05-14T03:10:57.295Z,0.00
2018-05-14T03:11:57.202Z,0.00
2018-05-14T03:12:57.110Z,5.63
2018-05-14T03:13:57.060Z,5.63
2018-05-14T03:14:56.929Z,5.63
2018-05-14T03:15:56.839Z,5.63
2018-05-14T03:16:56.754Z,5.63
2018-05-14T03:17:56.659Z,11.25
2018-05-14T03:18:56.569Z,11.25
2018-05-14T03:19:56.510Z,11.25
2018-05-14T03:20:56.391Z,11.25
2018-05-14T03:21:56.297Z,11.25
2018-05-14T03:22:56.208Z,11.25
2018-05-14T03:23:56.122Z,11.25
2018-05-14T03:24:56.060Z,16.88
2018-05-14T03:25:55.936Z,16.88
2018-05-14T03:26:55.847Z,16.88
2018-05-14T03:27:55.758Z,16.88
2018-05-14T03:28:55.669Z,22.50
2018-05-14T03:29:55.608Z,22.50
2018-05-14T03:30:55.485Z,22.50
2018-05-14T03:31:55.397Z,22.50
2018-05-14T03:32:55.308Z,22.50
2018-05-14T03:33:55.306Z,28.13
2018-05-14T03:34:55.126Z,28.13
2018-05-14T03:35:55.068Z,33.75
2018-05-14T03:36:54.946Z,39.38
2018-05-14T03:37:54.854Z,45.00
2018-05-14T03:38:56.660Z,45.00
2018-05-14T03:39:54.675Z,45.00
2018-05-14T03:40:54.706Z,56.25
2018-05-14T03:41:54.494Z,61.88
2018-05-14T03:42:54.402Z,56.25
2018-05-14T03:43:54.314Z,56.25
2018-05-14T03:44:54.224Z,73.13
2018-05-14T03:45:54.165Z,67.50
2018-05-14T03:46:54.045Z,78.75
2018-05-14T03:47:54.047Z,84.38
2018-05-14T03:48:53.865Z,90.00
2018-05-14T03:49:53.771Z,84.38
2018-05-14T03:50:53.718Z,101.25
2018-05-14T03:51:53.591Z,90.00
2018-05-14T03:52:53.503Z,101.25
2018-05-14T03:53:53.411Z,112.50
2018-05-14T03:54:53.425Z,123.75
2018-05-14T03:55:53.260Z,106.88
2018-05-14T03:56:53.665Z,112.50
2018-05-14T03:57:53.050Z,118.13
2018-05-14T03:58:52.961Z,118.13
2018-05-14T03:59:52.884Z,118.13
2018-05-14T04:00:52.783Z,135.00
2018-05-14T04:01:52.793Z,135.00
2018-05-14T04:02:52.600Z,140.63
2018-05-14T04:03:52.512Z,135.00
2018-05-14T04:04:52.422Z,157.50
2018-05-14T04:05:52.331Z,157.50
2018-05-14T04:06:52.272Z,151.88
2018-05-14T04:07:52.147Z,157.50
2018-05-14T04:08:52.158Z,163.13
2018-05-14T04:09:51.976Z,180.00
2018-05-14T04:10:51.884Z,174.38
2018-05-14T04:11:51.823Z,180.00
2018-05-14T04:12:51.701Z,191.25
2018-05-14T04:13:51.607Z,196.88
2018-05-14T04:14:51.526Z,180.00
2018-05-14T04:15:51.429Z,219.38
2018-05-14T04:16:51.371Z,191.25
2018-05-14T04:17:51.251Z,202.50
2018-05-14T04:18:51.160Z,208.13
2018-05-14T04:19:51.069Z,225.00
2018-05-14T04:20:50.982Z,258.75
2018-05-14T04:21:50.927Z,253.13
2018-05-14T04:22:50.800Z,275.63
2018-05-14T04:23:50.711Z,286.88
2018-05-14T04:24:50.621Z,241.88
2018-05-14T04:25:50.529Z,253.13
2018-05-14T04:26:50.440Z,264.38
2018-05-14T04:27:50.386Z,286.88
2018-05-14T04:28:50.262Z,315.00
2018-05-14T04:29:50.175Z,253.13
2018-05-14T04:30:50.081Z,264.38
2018-05-14T04:31:49.993Z,326.25
2018-05-14T04:32:49.938Z,320.63
2018-05-14T04:33:49.816Z,281.25
2018-05-14T04:34:49.732Z,337.50
2018-05-14T04:35:49.640Z,292.50
2018-05-14T04:36:49.547Z,331.88
2018-05-14T04:37:49.460Z,320.63
2018-05-14T04:38:49.399Z,388.13
2018-05-14T04:39:49.277Z,331.88
2018-05-14T04:40:49.188Z,303.75
2018-05-14T04:41:49.099Z,326.25
2018-05-14T04:42:49.010Z,331.88
2018-05-14T04:43:48.951Z,354.38
2018-05-14T04:44:48.830Z,365.63
2018-05-14T04:45:48.745Z,376.88
2018-05-14T04:46:49.227Z,354.38
2018-05-14T04:47:48.562Z,466.88
2018-05-14T04:48:48.506Z,421.88
2018-05-14T04:49:48.383Z,427.50
2018-05-14T04:50:49.236Z,528.75
2018-05-14T04:51:48.207Z,416.25
2018-05-14T04:52:48.119Z,613.13
2018-05-14T04:53:48.061Z,489.38
2018-05-14T04:54:47.944Z,523.13
2018-05-14T04:55:47.850Z,478.13
2018-05-14T04:56:47.761Z,455.63
2018-05-14T04:57:47.672Z,455.63
2018-05-14T04:58:47.585Z,523.13
2018-05-14T04:59:47.532Z,511.88
2018-05-14T05:00:47.408Z,489.38
2018-05-14T05:01:47.319Z,489.38
2018-05-14T05:02:47.234Z,601.88
2018-05-14T05:03:47.140Z,500.63
2018-05-14T05:04:47.100Z,534.38
2018-05-14T05:05:46.964Z,703.13
2018-05-14T05:06:46.874Z,826.88
2018-05-14T05:07:46.788Z,776.25
2018-05-14T05:08:46.700Z,658.13
2018-05-14T05:09:46.642Z,646.88
2018-05-14T05:10:46.523Z,641.25
2018-05-14T05:11:46.447Z,635.63
2018-05-14T05:12:46.352Z,646.88
2018-05-14T05:13:46.260Z,613.13
2018-05-14T05:14:46.170Z,635.63
2018-05-14T05:15:46.126Z,551.25
2018-05-14T05:16:45.993Z,630.00
2018-05-14T05:17:45.905Z,613.13
2018-05-14T05:18:45.818Z,658.13
2018-05-14T05:19:45.733Z,686.25
2018-05-14T05:20:45.673Z,669.38
2018-05-14T05:21:45.556Z,590.63
2018-05-14T05:22:45.516Z,652.50
2018-05-14T05:23:45.381Z,601.88
2018-05-14T05:24:45.288Z,545.63
2018-05-14T05:25:45.231Z,568.13
2018-05-14T05:26:45.114Z,658.13
2018-05-14T05:27:45.725Z,590.63
2018-05-14T05:28:44.935Z,675.00
2018-05-14T05:29:44.849Z,540.00
2018-05-14T05:30:44.792Z,691.88
2018-05-14T05:31:44.674Z,545.63
2018-05-14T05:32:44.677Z,691.88
2018-05-14T05:33:44.495Z,888.75
2018-05-14T05:34:44.413Z,669.38
2018-05-14T05:35:44.367Z,658.13
2018-05-14T05:36:44.236Z,686.25
2018-05-14T05:37:44.184Z,686.25
2018-05-14T05:38:44.056Z,562.50
2018-05-14T05:39:43.971Z,646.88
2018-05-14T05:40:43.883Z,601.88
2018-05-14T05:41:43.826Z,573.75
2018-05-14T05:42:43.705Z,506.25
2018-05-14T05:43:43.619Z,697.50
2018-05-14T05:44:43.534Z,658.13
2018-05-14T05:45:43.446Z,590.63
2018-05-14T05:46:44.195Z,590.63
2018-05-14T05:47:43.267Z,781.88
2018-05-14T05:48:43.182Z,821.25
2018-05-14T05:49:43.696Z,793.13
2018-05-14T05:50:43.011Z,1248.75
2018-05-14T05:51:42.951Z,680.63
2018-05-14T05:52:42.832Z,607.50
2018-05-14T05:53:42.743Z,725.63
2018-05-14T05:54:42.657Z,748.13
2018-05-14T05:55:42.568Z,641.25
2018-05-14T05:56:42.520Z,871.88
2018-05-14T05:57:42.397Z,826.88
2018-05-14T05:58:42.306Z,1085.63
2018-05-14T05:59:42.220Z,736.88
2018-05-14T06:00:42.131Z,607.50
2018-05-14T06:01:42.045Z,669.38
2018-05-14T06:02:41.991Z,1023.75
2018-05-14T06:03:41.881Z,680.63
2018-05-14T06:04:41.784Z,675.00
2018-05-14T06:05:41.699Z,630.00
2018-05-14T06:06:41.610Z,663.75
2018-05-14T06:07:41.556Z,658.13
2018-05-14T06:08:41.437Z,646.88
2018-05-14T06:09:41.350Z,675.00
2018-05-14T06:10:41.262Z,652.50
2018-05-14T06:11:41.175Z,517.50
2018-05-14T06:12:41.094Z,511.88
2018-05-14T06:13:41.038Z,624.38
2018-05-14T06:14:41.007Z,624.38
2018-05-14T06:15:40.828Z,624.38
2018-05-14T06:16:40.742Z,641.25
2018-05-14T06:17:40.653Z,652.50
2018-05-14T06:18:40.603Z,596.25
2018-05-14T06:19:40.484Z,568.13
2018-05-14T06:20:40.395Z,1288.13
2018-05-14T06:21:40.396Z,663.75
2018-05-14T06:22:40.225Z,720.00
2018-05-14T06:23:40.163Z,562.50
2018-05-14T06:24:40.046Z,618.75
2018-05-14T06:25:39.957Z,579.38
2018-05-14T06:26:39.871Z,545.63
2018-05-14T06:27:39.788Z,556.88
2018-05-14T06:28:39.733Z,545.63
2018-05-14T06:29:39.609Z,562.50
2018-05-14T06:30:39.527Z,618.75
2018-05-14T06:31:39.437Z,568.13
2018-05-14T06:32:39.349Z,675.00
2018-05-14T06:33:39.304Z,877.50
2018-05-14T06:34:39.177Z,928.13
2018-05-14T06:35:39.300Z,1147.50
2018-05-14T06:36:39.000Z,1597.50
2018-05-14T06:37:38.913Z,1721.25
2018-05-14T06:38:38.830Z,1749.38
2018-05-14T06:39:38.769Z,1816.88
2018-05-14T06:40:38.652Z,1648.13
2018-05-14T06:41:38.577Z,1653.75
2018-05-14T06:42:38.573Z,1811.25
2018-05-14T06:43:38.392Z,1670.63
2018-05-14T06:44:38.341Z,1653.75
2018-05-14T06:45:38.219Z,1687.50
2018-05-14T06:46:38.133Z,1980.00
2018-05-14T06:47:38.055Z,1985.63
2018-05-14T06:48:37.970Z,2390.63
2018-05-14T06:49:38.001Z,2143.13
2018-05-14T06:50:37.793Z,2131.88
2018-05-14T06:51:37.706Z,2598.75
2018-05-14T06:52:37.619Z,3015.00
2018-05-14T06:53:37.537Z,3110.63
2018-05-14T06:54:37.482Z,2486.25
2018-05-14T06:55:37.366Z,2913.75
2018-05-14T06:56:37.373Z,3150.00
2018-05-14T06:57:37.252Z,2947.50
2018-05-14T06:58:37.111Z,1760.63
2018-05-14T06:59:37.060Z,2835.00
2018-05-14T07:00:36.942Z,2812.50
2018-05-14T07:01:36.859Z,2908.13
2018-05-14T07:02:36.776Z,3043.13
2018-05-14T07:03:36.793Z,3015.00
2018-05-14T07:04:36.643Z,3487.50
2018-05-14T07:05:36.524Z,3751.88
2018-05-14T07:06:36.440Z,3633.75
2018-05-14T07:07:36.356Z,3594.38
2018-05-14T07:08:36.272Z,3481.88
2018-05-14T07:09:36.221Z,3465.00
2018-05-14T07:10:36.194Z,3256.88
2018-05-14T07:11:36.085Z,3318.75
2018-05-14T07:12:36.727Z,2767.50
2018-05-14T07:13:35.987Z,3538.13
2018-05-14T07:14:35.800Z,3020.63
2018-05-14T07:15:35.688Z,4123.13
2018-05-14T07:16:35.605Z,3583.13
2018-05-14T07:17:35.612Z,3706.88
2018-05-14T07:18:35.436Z,3616.88
2018-05-14T07:19:35.387Z,3616.88
2018-05-14T07:20:35.273Z,4275.00
2018-05-14T07:21:35.189Z,3791.25
2018-05-14T07:22:35.103Z,3864.38
2018-05-14T07:23:35.093Z,3847.50
2018-05-14T07:24:35.064Z,2548.13
2018-05-14T07:25:34.859Z,1996.88
2018-05-14T07:26:34.772Z,3847.50
2018-05-14T07:27:34.687Z,3903.75
2018-05-14T07:28:34.605Z,3504.38
2018-05-14T07:29:34.525Z,3780.00
2018-05-14T07:30:34.470Z,3504.38
2018-05-14T07:31:34.452Z,3296.25
2018-05-14T07:32:34.274Z,3330.00
2018-05-14T07:33:34.188Z,3358.13
2018-05-14T07:34:34.109Z,3420.00
2018-05-14T07:35:34.055Z,3915.00
2018-05-14T07:36:33.943Z,3853.13
2018-05-14T07:37:33.858Z,3751.88
2018-05-14T07:38:33.871Z,3988.13
2018-05-14T07:39:33.692Z,3886.88
2018-05-14T07:40:33.699Z,4320.00
2018-05-14T07:41:33.526Z,4353.75
2018-05-14T07:42:33.440Z,3915.00
2018-05-14T07:43:33.360Z,3470.63
2018-05-14T07:44:33.280Z,3555.00
2018-05-14T07:45:33.220Z,3763.13
2018-05-14T07:46:33.108Z,4522.50
2018-05-14T07:47:33.027Z,3386.25
2018-05-14T07:48:32.942Z,3555.00
2018-05-14T07:49:33.786Z,3836.25
2018-05-14T07:50:32.811Z,4528.13
2018-05-14T07:51:32.695Z,3948.75
2018-05-14T07:52:32.613Z,3256.88
2018-05-14T07:53:32.530Z,4021.88
2018-05-14T07:54:32.497Z,4533.75
2018-05-14T07:55:32.393Z,4162.50
2018-05-14T07:56:32.280Z,3341.25
2018-05-14T07:57:32.197Z,4072.50
2018-05-14T07:58:32.116Z,4781.25
2018-05-14T07:59:32.069Z,3903.75
2018-05-14T08:00:31.982Z,3442.50
2018-05-14T08:01:31.871Z,4691.25
2018-05-14T08:02:31.784Z,3330.00
2018-05-14T08:03:32.243Z,3718.13
2018-05-14T08:04:31.621Z,3825.00
2018-05-14T08:05:31.640Z,5872.50
2018-05-14T08:06:31.457Z,3436.88
2018-05-14T08:07:31.377Z,3881.25
2018-05-14T08:08:31.291Z,3948.75
2018-05-14T08:09:31.214Z,3549.38
2018-05-14T08:10:31.159Z,3009.38
2018-05-14T08:11:31.047Z,3285.00
2018-05-14T08:12:30.964Z,3335.63
2018-05-14T08:13:30.881Z,4297.50
2018-05-14T08:14:30.802Z,4432.50
2018-05-14T08:15:30.747Z,4241.25
2018-05-14T08:16:30.636Z,4320.00
2018-05-14T08:17:30.550Z,3645.00
2018-05-14T08:18:30.470Z,3493.13
2018-05-14T08:19:30.385Z,4483.13
2018-05-14T08:20:30.339Z,4398.75
2018-05-14T08:21:30.222Z,4584.38
2018-05-14T08:22:30.140Z,3999.38
2018-05-14T08:23:30.077Z,4528.13
2018-05-14T08:24:29.975Z,3841.88
2018-05-14T08:25:29.922Z,4331.25
2018-05-14T08:26:29.806Z,4291.88
2018-05-14T08:27:29.729Z,4246.88
2018-05-14T08:28:29.644Z,3898.13
2018-05-14T08:29:29.562Z,4584.38
2018-05-14T08:30:29.508Z,4556.25
2018-05-14T08:31:29.404Z,4618.13
2018-05-14T08:32:29.315Z,4483.13
2018-05-14T08:33:29.228Z,4263.75
2018-05-14T08:34:29.151Z,4376.25
2018-05-14T08:35:29.098Z,4488.75
2018-05-14T08:36:28.985Z,4449.38
2018-05-14T08:37:28.905Z,2823.75
2018-05-14T08:38:28.820Z,4640.63
2018-05-14T08:39:28.742Z,4708.13
2018-05-14T08:40:28.689Z,4685.63
2018-05-14T08:41:28.577Z,4663.13
2018-05-14T08:42:28.516Z,4843.13
2018-05-14T08:43:28.413Z,4685.63
2018-05-14T08:44:28.330Z,4303.13
2018-05-14T08:45:28.251Z,4584.38
2018-05-14T08:46:28.198Z,4831.88
2018-05-14T08:47:28.089Z,3566.25
2018-05-14T08:48:28.005Z,3060.00
2018-05-14T08:49:28.052Z,3386.25
2018-05-14T08:50:27.844Z,4269.38
2018-05-14T08:51:27.796Z,3926.25
2018-05-14T08:52:27.687Z,3532.50
2018-05-14T08:53:27.596Z,4460.63
2018-05-14T08:54:27.591Z,3746.25
2018-05-14T08:55:27.438Z,3858.75
2018-05-14T08:56:27.394Z,4629.38
2018-05-14T08:57:27.315Z,3780.00
2018-05-14T08:58:27.192Z,3493.13
2018-05-14T08:59:27.113Z,4989.38
2018-05-14T09:00:27.031Z,5169.38
2018-05-14T09:01:27.074Z,5062.50
2018-05-14T09:02:26.871Z,4680.00
2018-05-14T09:03:26.788Z,4944.38
2018-05-14T09:04:26.710Z,4809.38
2018-05-14T09:05:26.626Z,5011.88
2018-05-14T09:06:26.577Z,5152.50
2018-05-14T09:07:26.467Z,4983.75
2018-05-14T09:08:27.302Z,4933.13
2018-05-14T09:09:26.304Z,4719.38
2018-05-14T09:10:26.224Z,2655.00
2018-05-14T09:11:26.174Z,4725.00
2018-05-14T09:12:26.060Z,5158.13
2018-05-14T09:13:25.980Z,5011.88
2018-05-14T09:14:25.902Z,3678.75
2018-05-14T09:15:25.910Z,4663.13
2018-05-14T09:16:25.768Z,3706.88
2018-05-14T09:17:26.271Z,5265.00
2018-05-14T09:18:25.574Z,5096.25
2018-05-14T09:19:25.530Z,4066.88
2018-05-14T09:20:25.414Z,5231.25
2018-05-14T09:21:25.360Z,4201.88
2018-05-14T09:22:25.342Z,4291.88
2018-05-14T09:23:25.167Z,4348.13
2018-05-14T09:24:25.086Z,4471.88
2018-05-14T09:25:25.009Z,4241.25
2018-05-14T09:26:24.955Z,4876.88
2018-05-14T09:27:24.841Z,3796.88
2018-05-14T09:28:24.766Z,4893.75
2018-05-14T09:29:24.772Z,3324.38
2018-05-14T09:30:24.597Z,5045.63
2018-05-14T09:31:24.569Z,4950.00
2018-05-14T09:32:24.435Z,4421.25
2018-05-14T09:33:25.831Z,2880.00
2018-05-14T09:34:24.272Z,4618.13
2018-05-14T09:35:24.193Z,4556.25
2018-05-14T09:36:25.776Z,4635.00
2018-05-14T09:37:25.777Z,4809.38
2018-05-14T09:38:23.947Z,5113.13
2018-05-14T09:39:23.867Z,4786.88
2018-05-14T09:40:23.787Z,5506.88
2018-05-14T09:41:23.734Z,5456.25
2018-05-14T09:42:23.624Z,5422.50
2018-05-14T09:43:23.636Z,4005.00
2018-05-14T09:44:23.462Z,3121.88
2018-05-14T09:45:23.380Z,4983.75
2018-05-14T09:46:23.334Z,5023.13
2018-05-14T09:47:23.217Z,5208.75
2018-05-14T09:48:23.139Z,5394.38
2018-05-14T09:49:23.057Z,5304.38
2018-05-14T09:50:23.155Z,3965.63
2018-05-14T09:51:22.927Z,5051.25
2018-05-14T09:52:22.812Z,4111.88
2018-05-14T09:53:22.733Z,5326.88
2018-05-14T09:54:22.653Z,3363.75
2018-05-14T09:55:22.572Z,5754.38
2018-05-14T09:56:22.522Z,4561.88
2018-05-14T09:57:22.523Z,5810.63
2018-05-14T09:58:22.329Z,2694.38
2018-05-14T09:59:22.248Z,3498.75
2018-05-14T10:00:22.166Z,5326.88
2018-05-14T10:01:22.088Z,5265.00
2018-05-14T10:02:22.036Z,5585.63
2018-05-14T10:03:21.925Z,3633.75
2018-05-14T10:04:21.940Z,4612.50
2018-05-14T10:05:21.765Z,5338.13
2018-05-14T10:06:21.696Z,5169.38
2018-05-14T10:07:21.636Z,5388.75
2018-05-14T10:08:21.521Z,4376.25
2018-05-14T10:09:21.442Z,4162.50
2018-05-14T10:10:22.292Z,3943.13
2018-05-14T10:11:21.373Z,4815.00
2018-05-14T10:12:21.232Z,5186.25
2018-05-14T10:13:21.118Z,3847.50
2018-05-14T10:14:21.039Z,5141.25
2018-05-14T10:15:20.960Z,4725.00
2018-05-14T10:16:20.878Z,4747.50
2018-05-14T10:17:20.828Z,5180.63
2018-05-14T10:18:20.824Z,5146.88
2018-05-14T10:19:20.637Z,4730.63
2018-05-14T10:20:20.556Z,4230.00
2018-05-14T10:21:20.478Z,5073.75
2018-05-14T10:22:20.427Z,4663.13
2018-05-14T10:23:20.318Z,5180.63
2018-05-14T10:24:20.236Z,5540.63
2018-05-14T10:25:20.249Z,5422.50
2018-05-14T10:26:20.074Z,5512.50
2018-05-14T10:27:20.027Z,5461.88
2018-05-14T10:28:19.911Z,5422.50
2018-05-14T10:29:19.846Z,5208.75
2018-05-14T10:30:19.753Z,5011.88
2018-05-14T10:31:19.671Z,4500.00
2018-05-14T10:32:19.711Z,5191.88
2018-05-14T10:33:19.510Z,4651.88
2018-05-14T10:34:19.430Z,3583.13
2018-05-14T10:35:21.300Z,1698.75
2018-05-14T10:36:19.270Z,4933.13
2018-05-14T10:37:19.224Z,4224.38
2018-05-14T10:38:19.106Z,3825.00
2018-05-14T10:39:19.029Z,3375.00
2018-05-14T10:40:18.944Z,3706.88
2018-05-14T10:41:18.870Z,3915.00
2018-05-14T10:42:18.816Z,4089.38
2018-05-14T10:43:18.705Z,3836.25
2018-05-14T10:44:18.624Z,3763.13
2018-05-14T10:45:18.550Z,5326.88
2018-05-14T10:46:18.461Z,5304.38
2018-05-14T10:47:19.304Z,5242.50
2018-05-14T10:48:18.301Z,4539.38
2018-05-14T10:49:18.219Z,5394.38
2018-05-14T10:50:18.138Z,5467.50
2018-05-14T10:51:18.057Z,3605.63
2018-05-14T10:52:18.007Z,2728.13
2018-05-14T10:53:17.895Z,4230.00
2018-05-14T10:54:17.817Z,3808.13
2018-05-14T10:55:17.733Z,5416.88
2018-05-14T10:56:17.655Z,2182.50
2018-05-14T10:57:18.309Z,5355.00
2018-05-14T10:58:17.494Z,5636.25
2018-05-14T10:59:17.413Z,5923.13
2018-05-14T11:00:17.334Z,5281.88
2018-05-14T11:01:17.253Z,3645.00
2018-05-14T11:02:17.205Z,4815.00
2018-05-14T11:03:17.095Z,5473.13
2018-05-14T11:04:17.020Z,4387.50
2018-05-14T11:05:16.933Z,4663.13
2018-05-14T11:06:16.857Z,2430.00
2018-05-14T11:07:16.808Z,5135.63
2018-05-14T11:08:16.693Z,5343.75
2018-05-14T11:09:16.613Z,5647.50
2018-05-14T11:10:16.529Z,5743.13
2018-05-14T11:11:16.455Z,5658.75
2018-05-14T11:12:16.404Z,5546.25
2018-05-14T11:13:16.293Z,5546.25
2018-05-14T11:14:16.213Z,5310.00
2018-05-14T11:15:16.132Z,5411.25
2018-05-14T11:16:16.064Z,2919.38
2018-05-14T11:17:15.975Z,5726.25
2018-05-14T11:18:15.923Z,5602.50
2018-05-14T11:19:15.812Z,4348.13
2018-05-14T11:20:15.732Z,4933.13
2018-05-14T11:21:15.941Z,5360.63
2018-05-14T11:22:15.576Z,5675.63
2018-05-14T11:23:15.525Z,4646.25
2018-05-14T11:24:15.412Z,5568.75
2018-05-14T11:25:15.819Z,5287.50
2018-05-14T11:26:15.256Z,4612.50
2018-05-14T11:27:15.194Z,4657.50
2018-05-14T11:28:15.124Z,3285.00
2018-05-14T11:29:15.013Z,3684.38
2018-05-14T11:30:14.934Z,4314.38
2018-05-14T11:31:14.854Z,4426.88
2018-05-14T11:32:14.775Z,5163.75
2018-05-14T11:33:14.725Z,5298.75
2018-05-14T11:34:14.612Z,4961.25
2018-05-14T11:35:14.626Z,4533.75
2018-05-14T11:36:14.459Z,4966.88
2018-05-14T11:37:14.375Z,5422.50
2018-05-14T11:38:14.325Z,5394.38
2018-05-14T11:39:14.222Z,3352.50
2018-05-14T11:40:14.147Z,4657.50
2018-05-14T11:41:14.056Z,4927.50
2018-05-14T11:42:14.068Z,4657.50
2018-05-14T11:43:13.926Z,3903.75
2018-05-14T11:44:13.814Z,4854.38
2018-05-14T11:45:13.748Z,652.50
2018-05-14T11:46:13.666Z,4961.25
2018-05-14T11:47:13.576Z,5535.00
2018-05-14T11:48:13.529Z,5366.25
2018-05-14T11:49:13.510Z,2767.50
2018-05-14T11:50:13.340Z,5574.38
2018-05-14T11:51:13.257Z,5355.00
2018-05-14T11:52:13.202Z,5096.25
2018-05-14T11:53:13.128Z,5107.50
2018-05-14T11:54:13.019Z,2362.50
2018-05-14T11:55:12.943Z,4595.63
2018-05-14T11:56:12.952Z,5551.88
2018-05-14T11:57:12.777Z,5225.63
2018-05-14T11:58:12.729Z,5208.75
2018-05-14T11:59:12.623Z,5096.25
2018-05-14T12:00:12.541Z,5231.25
2018-05-14T12:01:12.458Z,5169.38
2018-05-14T12:02:12.379Z,5208.75
2018-05-14T12:03:12.510Z,4983.75
2018-05-14T12:04:12.226Z,5011.88
2018-05-14T12:05:12.139Z,4944.38
2018-05-14T12:06:12.060Z,5073.75
2018-05-14T12:07:11.983Z,5146.88
2018-05-14T12:08:11.934Z,5175.00
2018-05-14T12:09:11.822Z,691.88
2018-05-14T12:10:11.851Z,1119.38
2018-05-14T12:11:11.661Z,4072.50
2018-05-14T12:12:11.624Z,5000.63
2018-05-14T12:13:11.531Z,4910.63
2018-05-14T12:14:11.424Z,3088.13
2018-05-14T12:15:11.353Z,3448.13
2018-05-14T12:16:11.343Z,4556.25
2018-05-14T12:17:11.275Z,4938.75
2018-05-14T12:18:11.148Z,3003.75
2018-05-14T12:19:11.023Z,4775.63
2018-05-14T12:20:10.941Z,5141.25
2018-05-14T12:21:10.860Z,5011.88
2018-05-14T12:22:10.783Z,4860.00
2018-05-14T12:23:10.733Z,3172.50
2018-05-14T12:24:10.719Z,4972.50
2018-05-14T12:25:10.541Z,4871.25
2018-05-14T12:26:10.465Z,4848.75
2018-05-14T12:27:10.897Z,4978.13
2018-05-14T12:28:10.303Z,5428.13
2018-05-14T12:29:10.251Z,4921.88